Time;durP1;ratioP1;P1;durP2;ratioP2;P2;SDS_P1;SDS_P2;PMS_P1;PMS_P2;Temp;Humidity;BMP_temperature;BMP_pressure;BME280_temperature;BME280_humidity;BME280_pressure;Samples;Min_cycle;Max_cycle;Signal;HPM_P1;HPM_P2
2022/10/31 00:01:59;;;;;;;1.13;0.90;;;14.40;1.00;;;;;;5140687;27;20448;-72
2022/10/31 00:04:26;;;;;;;3.77;1.30;;;14.40;4.70;;;;;;5140902;27;20516;-73
2022/10/31 00:06:53;;;;;;;2.63;0.93;;;14.50;3.10;;;;;;5140402;27;20858;-73
2022/10/31 00:09:20;;;;;;;4.13;1.00;;;14.50;1.00;;;;;;5140409;27;20498;-72
2022/10/31 00:11:46;;;;;;;2.53;1.00;;;14.40;1.00;;;;;;5142086;27;20460;-72
2022/10/31 00:14:13;;;;;;;4.40;1.07;;;14.40;1.00;;;;;;5140559;27;20536;-72
2022/10/31 00:16:41;;;;;;;1.13;0.80;;;14.40;1.00;;;;;;5140833;27;20440;-73
2022/10/31 00:19:09;;;;;;;2.70;0.90;;;14.40;1.00;;;;;;5140248;27;20528;-71
2022/10/31 00:21:36;;;;;;;1.70;1.00;;;14.40;1.00;;;;;;5139840;27;20486;-72
2022/10/31 00:24:04;;;;;;;2.03;1.00;;;14.40;1.10;;;;;;5139431;27;20559;-72
2022/10/31 00:26:32;;;;;;;1.80;0.97;;;14.40;1.00;;;;;;5140520;27;20515;-72
2022/10/31 00:28:59;;;;;;;1.50;0.90;;;14.40;1.00;;;;;;5140072;27;20520;-72
2022/10/31 00:31:26;;;;;;;1.40;0.80;;;14.30;1.00;;;;;;5140575;27;20821;-72
2022/10/31 00:33:53;;;;;;;2.03;0.90;;;14.10;3.60;;;;;;5140433;27;20531;-72
2022/10/31 00:36:21;;;;;;;2.33;0.97;;;14.10;20.20;;;;;;5140075;27;20464;-72
2022/10/31 00:38:49;;;;;;;2.60;0.90;;;14.10;22.70;;;;;;5139750;27;20471;-72
2022/10/31 00:41:18;;;;;;;4.83;0.90;;;14.20;9.00;;;;;;5139955;27;20444;-73
2022/10/31 00:43:45;;;;;;;1.40;0.93;;;14.20;1.00;;;;;;5139869;27;20547;-72
2022/10/31 00:46:12;;;;;;;3.33;0.90;;;14.10;1.50;;;;;;5139986;27;20862;-73
2022/10/31 00:48:39;;;;;;;2.87;1.00;;;14.10;1.00;;;;;;5140494;27;20494;-72
2022/10/31 00:51:06;;;;;;;1.70;1.00;;;14.10;5.30;;;;;;5140954;27;20486;-72
2022/10/31 00:53:35;;;;;;;3.40;0.90;;;14.20;21.50;;;;;;5139892;27;20486;-72
2022/10/31 00:56:02;;;;;;;1.67;0.80;;;14.30;15.70;;;;;;5139676;27;20479;-71
2022/10/31 00:58:29;;;;;;;1.70;0.97;;;14.30;1.00;;;;;;5140044;27;20805;-73
2022/10/31 01:00:56;;;;;;;5.37;1.00;;;14.30;1.00;;;;;;5139412;27;20479;-72
2022/10/31 01:03:24;;;;;;;1.77;1.00;;;14.30;1.00;;;;;;5138428;27;20475;-72
2022/10/31 01:05:59;;;;;;;1.20;0.80;;;14.30;1.00;;;;;;5139926;27;20511;-71
2022/10/31 01:08:26;;;;;;;1.87;0.90;;;14.30;1.00;;;;;;5139895;27;20473;-72
2022/10/31 01:11:02;;;;;;;1.40;0.90;;;14.30;1.00;;;;;;5139815;27;20448;-72
2022/10/31 01:13:29;;;;;;;2.00;0.80;;;14.30;1.10;;;;;;5139887;27;20508;-72
2022/10/31 01:15:56;;;;;;;1.47;0.77;;;14.30;1.00;;;;;;5139962;27;20879;-72
2022/10/31 01:18:23;;;;;;;2.23;0.90;;;14.40;1.00;;;;;;5140030;27;20462;-72
2022/10/31 01:20:58;;;;;;;2.83;0.90;;;14.30;1.00;;;;;;5138861;27;20444;-72
2022/10/31 01:23:25;;;;;;;1.70;0.70;;;14.20;1.00;;;;;;5139495;27;20770;-73
2022/10/31 01:26:06;;;;;;;1.40;0.90;;;14.10;1.00;;;;;;5139229;27;20587;-71
2022/10/31 01:28:33;;;;;;;2.17;1.10;;;14.10;1.00;;;;;;5139532;27;20487;-71
2022/10/31 01:31:04;;;;;;;2.60;0.90;;;14.00;1.00;;;;;;5139086;27;20444;-72
2022/10/31 01:33:31;;;;;;;1.10;0.70;;;14.00;8.70;;;;;;5138985;27;20491;-72
2022/10/31 01:35:59;;;;;;;2.10;1.00;;;13.90;5.90;;;;;;5139036;27;20475;-72
2022/10/31 01:38:25;;;;;;;2.10;0.80;;;14.00;12.80;;;;;;5139067;27;20495;-72
2022/10/31 01:40:52;;;;;;;1.90;0.70;;;13.90;9.40;;;;;;5138775;27;20472;-72
2022/10/31 01:43:21;;;;;;;1.20;0.80;;;14.00;23.90;;;;;;5139405;27;20495;-72
2022/10/31 01:45:54;;;;;;;1.40;0.80;;;14.10;20.60;;;;;;5139343;27;20526;-71
2022/10/31 01:48:27;;;;;;;1.80;0.90;;;14.10;1.80;;;;;;5138854;27;20456;-72
2022/10/31 01:50:55;;;;;;;1.20;0.70;;;14.10;1.00;;;;;;5139379;27;20483;-72
2022/10/31 01:53:24;;;;;;;1.50;0.83;;;14.20;1.00;;;;;;5138517;27;20926;-74
2022/10/31 01:55:51;;;;;;;2.53;1.00;;;14.20;1.00;;;;;;5138715;27;20792;-73
2022/10/31 01:58:26;;;;;;;1.43;0.90;;;14.20;1.00;;;;;;5138391;27;20810;-72
2022/10/31 02:00:56;;;;;;;1.53;1.00;;;14.20;1.00;;;;;;5138732;27;20478;-72
2022/10/31 02:03:24;;;;;;;2.60;0.90;;;14.20;1.00;;;;;;5138579;27;20527;-71
2022/10/31 02:05:53;;;;;;;1.70;0.80;;;14.20;1.00;;;;;;5138751;27;21039;-72
2022/10/31 02:08:26;;;;;;;1.20;0.90;;;14.10;1.00;;;;;;5139156;27;20491;-73
2022/10/31 02:10:54;;;;;;;1.80;0.73;;;14.10;1.30;;;;;;5138472;27;20475;-73
2022/10/31 02:13:22;;;;;;;1.73;0.90;;;14.10;2.70;;;;;;5138490;27;20455;-71
2022/10/31 02:15:52;;;;;;;1.23;0.83;;;14.20;7.10;;;;;;5138860;27;21017;-72
2022/10/31 02:18:20;;;;;;;2.10;0.90;;;14.30;1.00;;;;;;5138433;27;20447;-73
2022/10/31 02:20:55;;;;;;;1.90;0.80;;;14.20;1.00;;;;;;5138717;27;20490;-73
2022/10/31 02:23:55;;;;;;;4.63;0.73;;;14.20;1.00;;;;;;5138925;27;20459;-72
2022/10/31 02:26:52;;;;;;;1.97;0.90;;;14.10;1.00;;;;;;5138759;27;20607;-72
2022/10/31 02:29:49;;;;;;;1.40;1.10;;;14.00;1.00;;;;;;5138887;27;20748;-73
2022/10/31 02:32:23;;;;;;;2.40;0.90;;;14.00;5.40;;;;;;5137538;27;20906;-72
2022/10/31 02:34:58;;;;;;;0.90;0.70;;;14.00;1.00;;;;;;5138300;27;20966;-71
2022/10/31 02:37:33;;;;;;;3.63;0.93;;;14.00;5.20;;;;;;5138066;27;20895;-72
2022/10/31 02:40:08;;;;;;;1.97;1.00;;;14.00;15.20;;;;;;5122364;27;20500;-72
2022/10/31 02:42:47;;;;;;;1.30;0.80;;;14.00;9.00;;;;;;5118060;28;20806;-71
2022/10/31 02:45:20;;;;;;;1.67;0.90;;;14.00;1.00;;;;;;5117381;28;20448;-72
2022/10/31 02:47:51;;;;;;;4.63;1.10;;;14.00;1.00;;;;;;5117814;28;20488;-73
2022/10/31 02:50:24;;;;;;;3.20;1.00;;;14.00;7.80;;;;;;5117579;28;20452;-72
2022/10/31 02:52:52;;;;;;;1.20;0.90;;;14.00;1.00;;;;;;5117322;28;20487;-73
2022/10/31 02:55:47;;;;;;;1.20;0.90;;;14.00;1.00;;;;;;5117858;28;20468;-73
2022/10/31 02:58:17;;;;;;;2.07;0.90;;;14.00;1.00;;;;;;5117462;28;20809;-72
2022/10/31 03:00:53;;;;;;;1.63;0.83;;;14.00;7.30;;;;;;5117529;28;20498;-71
2022/10/31 03:03:30;;;;;;;1.33;0.80;;;13.90;10.80;;;;;;5117624;28;20948;-70
2022/10/31 03:06:04;;;;;;;3.67;1.00;;;14.00;9.50;;;;;;5117358;28;20701;-72
2022/10/31 03:08:35;;;;;;;2.03;0.90;;;14.00;1.00;;;;;;5117892;28;20504;-73
2022/10/31 03:11:06;;;;;;;1.70;0.90;;;14.00;2.80;;;;;;5117266;28;20482;-74
2022/10/31 03:13:40;;;;;;;1.83;0.80;;;14.00;5.20;;;;;;5117496;28;20911;-71
2022/10/31 03:16:13;;;;;;;1.40;0.83;;;13.90;1.00;;;;;;5117230;28;20472;-73
2022/10/31 03:18:50;;;;;;;3.37;0.80;;;13.90;1.00;;;;;;5117421;28;20488;-72
2022/10/31 03:21:22;;;;;;;1.40;0.83;;;13.80;1.00;;;;;;5117807;28;20448;-73
2022/10/31 03:23:52;;;;;;;2.63;0.90;;;13.80;1.00;;;;;;5117382;28;20455;-72
2022/10/31 03:26:20;;;;;;;1.70;0.80;;;13.80;5.80;;;;;;5117501;28;20512;-73
2022/10/31 03:28:52;;;;;;;1.27;0.73;;;13.90;19.20;;;;;;5117767;28;20476;-73
2022/10/31 03:31:24;;;;;;;2.97;0.90;;;13.80;1.00;;;;;;5118576;28;20476;-72
2022/10/31 03:33:55;;;;;;;1.40;0.80;;;13.80;1.00;;;;;;5118790;28;20899;-73
2022/10/31 03:36:23;;;;;;;3.40;0.80;;;13.70;1.00;;;;;;5118998;28;20476;-72
2022/10/31 03:38:50;;;;;;;2.10;0.83;;;13.70;5.60;;;;;;5119031;28;20500;-73
2022/10/31 03:41:22;;;;;;;1.60;0.83;;;13.80;11.00;;;;;;5119741;28;20479;-72
2022/10/31 03:43:55;;;;;;;2.00;0.90;;;13.70;1.00;;;;;;5121827;28;20479;-72
2022/10/31 03:46:22;;;;;;;1.73;0.80;;;13.70;1.00;;;;;;5122181;28;20927;-72
2022/10/31 03:48:49;;;;;;;1.87;0.90;;;13.70;1.00;;;;;;5121865;28;20456;-72
2022/10/31 03:51:23;;;;;;;1.30;0.80;;;13.70;36.00;;;;;;5120692;28;20561;-73
2022/10/31 03:53:57;;;;;;;1.40;0.80;;;13.70;28.70;;;;;;5120685;28;20492;-72
2022/10/31 03:56:31;;;;;;;2.90;0.83;;;13.80;26.90;;;;;;5120272;28;20487;-73
2022/10/31 03:59:03;;;;;;;2.33;0.77;;;13.90;1.00;;;;;;5120273;28;20895;-72
2022/10/31 04:01:33;;;;;;;2.13;0.90;;;13.90;1.00;;;;;;5120743;28;20810;-72
2022/10/31 04:04:01;;;;;;;1.40;0.80;;;13.90;1.00;;;;;;5120791;28;20925;-72
2022/10/31 04:06:30;;;;;;;1.90;1.10;;;13.80;1.00;;;;;;5119506;28;20858;-72
2022/10/31 04:09:01;;;;;;;1.53;0.80;;;13.80;1.00;;;;;;5120795;28;20453;-72
2022/10/31 04:11:32;;;;;;;1.57;0.87;;;13.80;1.00;;;;;;5102761;28;20548;-72
2022/10/31 04:14:00;;;;;;;3.27;0.80;;;13.80;1.00;;;;;;5120649;28;20712;-72
2022/10/31 04:16:28;;;;;;;1.50;1.00;;;13.70;3.10;;;;;;5120805;28;20880;-73
2022/10/31 04:18:55;;;;;;;2.10;0.80;;;13.70;1.00;;;;;;5121334;28;20530;-72
2022/10/31 04:21:29;;;;;;;1.40;0.80;;;13.60;1.00;;;;;;5120219;28;20770;-72
2022/10/31 04:23:57;;;;;;;1.20;0.80;;;13.50;14.70;;;;;;5120908;28;20455;-72
2022/10/31 04:26:24;;;;;;;1.83;0.90;;;13.60;51.90;;;;;;5120473;28;20581;-73
2022/10/31 04:28:51;;;;;;;2.30;0.80;;;13.60;38.10;;;;;;5120419;28;20452;-71
2022/10/31 04:31:18;;;;;;;1.47;0.80;;;13.70;29.00;;;;;;5120037;28;20487;-71
2022/10/31 04:33:45;;;;;;;1.40;0.80;;;13.70;10.10;;;;;;5119549;28;20513;-71
2022/10/31 04:36:12;;;;;;;1.27;0.90;;;13.60;1.00;;;;;;5118946;28;20469;-72
2022/10/31 04:38:40;;;;;;;2.73;0.90;;;13.60;1.00;;;;;;5123379;27;20511;-71
2022/10/31 04:41:07;;;;;;;2.70;0.73;;;13.50;10.00;;;;;;5140121;27;20479;-71
2022/10/31 04:43:34;;;;;;;1.43;0.90;;;13.50;1.00;;;;;;5139546;27;20890;-71
2022/10/31 04:46:01;;;;;;;2.60;0.83;;;13.50;1.00;;;;;;5140275;27;20875;-72
2022/10/31 04:48:28;;;;;;;4.77;0.87;;;13.30;12.40;;;;;;5140439;27;20849;-72
2022/10/31 04:51:00;;;;;;;1.77;0.90;;;13.30;16.50;;;;;;5140301;27;20790;-72
2022/10/31 04:53:27;;;;;;;2.03;1.40;;;13.20;23.30;;;;;;5140258;27;20737;-71
2022/10/31 04:55:55;;;;;;;1.20;0.80;;;13.10;44.40;;;;;;5140581;27;20440;-72
2022/10/31 04:58:22;;;;;;;1.40;0.90;;;13.00;50.80;;;;;;5139532;27;20507;-72
2022/10/31 05:00:52;;;;;;;1.73;0.90;;;13.10;91.40;;;;;;5139690;27;20435;-72
2022/10/31 05:03:20;;;;;;;1.77;0.90;;;13.10;89.60;;;;;;5139807;27;20539;-72
2022/10/31 05:05:46;;;;;;;1.33;0.80;;;13.10;72.30;;;;;;5139765;27;20884;-72
2022/10/31 05:08:13;;;;;;;1.03;0.80;;;13.10;56.60;;;;;;5139674;27;20958;-72
2022/10/31 05:10:40;;;;;;;2.60;0.80;;;13.10;61.50;;;;;;5139932;27;20454;-72
2022/10/31 05:13:09;;;;;;;2.33;0.83;;;13.20;50.60;;;;;;5140054;27;20902;-72
2022/10/31 05:15:36;;;;;;;1.10;0.80;;;13.10;25.20;;;;;;5139594;27;20474;-72
2022/10/31 05:18:03;;;;;;;1.40;0.90;;;13.10;7.10;;;;;;5139467;27;20483;-72
2022/10/31 05:20:31;;;;;;;1.87;0.90;;;13.00;6.40;;;;;;5139500;27;20473;-72
2022/10/31 05:22:59;;;;;;;2.40;0.80;;;12.90;8.60;;;;;;5139035;27;20482;-71
2022/10/31 05:25:28;;;;;;;3.93;0.90;;;12.80;32.90;;;;;;5139223;27;20532;-72
2022/10/31 05:27:56;;;;;;;2.60;0.90;;;12.80;39.50;;;;;;5138625;27;20515;-72
2022/10/31 05:30:26;;;;;;;3.40;0.90;;;12.70;42.40;;;;;;5139254;27;20487;-73
2022/10/31 05:32:53;;;;;;;5.13;0.80;;;12.70;48.20;;;;;;5139179;27;20498;-71
2022/10/31 05:35:21;;;;;;;3.30;1.10;;;12.70;80.80;;;;;;5139535;27;20497;-72
2022/10/31 05:37:49;;;;;;;2.60;1.00;;;12.70;77.30;;;;;;5139628;27;20483;-72
2022/10/31 05:40:17;;;;;;;3.03;1.00;;;12.70;64.20;;;;;;5120707;27;20472;-72
2022/10/31 05:42:44;;;;;;;1.70;0.90;;;12.70;69.40;;;;;;5118222;28;20499;-71
2022/10/31 05:45:14;;;;;;;1.30;0.80;;;12.80;85.50;;;;;;5118181;28;20479;-71
2022/10/31 05:47:42;;;;;;;1.67;0.90;;;12.90;60.50;;;;;;5117677;28;20520;-71
2022/10/31 05:50:10;;;;;;;3.00;0.70;;;13.00;56.50;;;;;;5118785;28;20477;-71
2022/10/31 05:52:37;;;;;;;1.33;0.87;;;12.90;25.00;;;;;;5118313;28;20506;-72
2022/10/31 05:55:05;;;;;;;2.10;1.00;;;12.90;3.50;;;;;;5118486;28;20941;-72
2022/10/31 05:57:33;;;;;;;1.67;0.70;;;12.80;1.00;;;;;;5118623;28;20872;-72
2022/10/31 06:00:00;;;;;;;1.20;0.80;;;12.70;5.80;;;;;;5117775;28;20440;-72
2022/10/31 06:02:31;;;;;;;2.30;1.00;;;12.70;15.40;;;;;;5117776;28;20521;-71
2022/10/31 06:04:59;;;;;;;3.27;0.90;;;12.60;23.50;;;;;;5117314;28;20549;-71
2022/10/31 06:07:26;;;;;;;1.47;1.37;;;12.60;46.90;;;;;;5117842;28;20575;-72
2022/10/31 06:09:53;;;;;;;2.10;0.93;;;12.70;54.90;;;;;;5117527;28;20466;-72
2022/10/31 06:12:20;;;;;;;1.70;0.80;;;12.70;51.80;;;;;;5117290;28;20476;-73
2022/10/31 06:14:47;;;;;;;1.20;0.73;;;12.80;87.00;;;;;;5115837;28;20884;-73
2022/10/31 06:17:14;;;;;;;1.87;0.80;;;12.90;94.40;;;;;;5117207;28;20433;-72
2022/10/31 06:19:41;;;;;;;2.07;0.80;;;13.10;47.30;;;;;;5116118;28;20535;-72
2022/10/31 06:22:11;;;;;;;2.33;0.80;;;13.20;9.60;;;;;;5116660;28;20441;-72
2022/10/31 06:24:38;;;;;;;1.73;1.07;;;13.20;13.10;;;;;;5115615;28;20449;-72
2022/10/31 06:27:05;;;;;;;1.87;1.07;;;13.30;1.00;;;;;;5115300;28;20480;-72
2022/10/31 06:29:33;;;;;;;2.00;1.13;;;13.20;1.00;;;;;;5114181;28;20825;-71
2022/10/31 06:31:59;;;;;;;2.77;1.10;;;13.10;1.00;;;;;;5114042;28;20586;-72
2022/10/31 06:34:27;;;;;;;2.23;0.90;;;13.20;13.40;;;;;;5114626;28;20786;-73
2022/10/31 06:36:54;;;;;;;1.77;0.97;;;13.20;18.40;;;;;;5115261;28;20445;-73
2022/10/31 06:39:22;;;;;;;1.90;0.97;;;13.30;13.40;;;;;;5115040;28;20606;-71
2022/10/31 06:41:49;;;;;;;6.93;1.00;;;13.30;17.60;;;;;;5114952;28;20449;-72
2022/10/31 06:44:16;;;;;;;2.63;1.10;;;13.30;20.10;;;;;;5116010;28;20553;-73
2022/10/31 06:46:43;;;;;;;1.10;0.90;;;13.30;12.50;;;;;;5116926;28;20499;-73
2022/10/31 06:49:09;;;;;;;2.23;0.90;;;13.50;13.80;;;;;;5116740;28;20579;-73
2022/10/31 06:51:36;;;;;;;1.33;0.83;;;13.50;1.00;;;;;;5117073;28;20536;-72
2022/10/31 06:54:04;;;;;;;2.20;1.10;;;13.50;1.00;;;;;;5116873;28;20527;-73
2022/10/31 06:56:32;;;;;;;2.10;0.97;;;13.40;1.00;;;;;;5116672;28;20445;-72
2022/10/31 06:58:59;;;;;;;1.97;0.80;;;13.40;1.00;;;;;;5116581;28;20488;-72
2022/10/31 07:01:26;;;;;;;1.87;0.90;;;13.40;1.00;;;;;;5112869;28;20977;-72
2022/10/31 07:03:53;;;;;;;1.30;0.80;;;13.60;1.00;;;;;;5108520;28;20837;-73
2022/10/31 07:06:21;;;;;;;1.33;0.90;;;13.60;1.00;;;;;;5115759;28;20480;-72
2022/10/31 07:08:48;;;;;;;5.03;0.90;;;13.70;1.00;;;;;;5115579;28;20487;-72
2022/10/31 07:11:15;;;;;;;1.40;0.77;;;13.70;1.00;;;;;;5110952;28;20477;-72
2022/10/31 07:13:44;;;;;;;4.60;1.10;;;13.70;1.00;;;;;;5115607;28;20841;-72
2022/10/31 07:16:12;;;;;;;1.30;0.87;;;13.60;1.00;;;;;;5116244;28;20492;-72
2022/10/31 07:18:39;;;;;;;2.60;1.00;;;13.60;1.00;;;;;;5119441;28;20492;-72
2022/10/31 07:21:06;;;;;;;1.87;0.87;;;13.60;1.00;;;;;;5121786;27;20491;-73
2022/10/31 07:23:33;;;;;;;1.70;0.90;;;13.70;1.00;;;;;;5115000;28;20587;-72
2022/10/31 07:26:00;;;;;;;2.60;1.30;;;13.70;1.00;;;;;;5117598;28;20559;-72
2022/10/31 07:28:28;;;;;;;4.43;1.10;;;13.60;1.00;;;;;;5120298;28;20480;-72
2022/10/31 07:30:58;;;;;;;1.50;0.90;;;13.60;1.00;;;;;;5117434;27;20456;-72
2022/10/31 07:33:26;;;;;;;1.53;1.00;;;13.70;1.00;;;;;;5117960;28;20492;-73
2022/10/31 07:35:53;;;;;;;1.83;0.90;;;13.70;1.00;;;;;;5120952;27;20887;-72
2022/10/31 07:38:21;;;;;;;4.03;1.00;;;13.70;1.00;;;;;;5121567;27;20440;-73
2022/10/31 07:40:52;;;;;;;1.80;1.00;;;13.80;1.00;;;;;;5140632;27;20812;-72
2022/10/31 07:43:19;;;;;;;1.97;1.07;;;13.70;1.00;;;;;;5137668;27;20455;-72
2022/10/31 07:45:51;;;;;;;1.63;0.97;;;13.90;1.00;;;;;;5137613;27;20528;-71
2022/10/31 07:48:19;;;;;;;3.23;1.03;;;14.00;1.00;;;;;;5137861;27;20480;-71
2022/10/31 07:50:47;;;;;;;1.27;0.80;;;14.10;1.00;;;;;;5139003;27;20514;-72
2022/10/31 07:53:16;;;;;;;1.63;0.80;;;14.10;1.00;;;;;;5146014;27;20462;-71
2022/10/31 07:55:43;;;;;;;1.87;0.90;;;14.10;1.00;;;;;;5135908;27;20456;-73
2022/10/31 07:58:12;;;;;;;1.27;1.00;;;14.10;1.00;;;;;;5125873;27;20447;-71
2022/10/31 08:00:44;;;;;;;2.93;1.40;;;14.10;1.00;;;;;;5133883;27;20554;-70
2022/10/31 08:03:12;;;;;;;3.67;1.10;;;14.30;1.00;;;;;;5132709;27;20459;-71
2022/10/31 08:05:41;;;;;;;7.53;1.43;;;14.40;1.00;;;;;;5140418;27;20895;-72
2022/10/31 08:08:09;;;;;;;2.80;1.30;;;14.40;1.00;;;;;;5139108;27;20478;-72
2022/10/31 08:10:36;;;;;;;1.90;1.07;;;14.40;1.00;;;;;;5136625;27;20497;-72
2022/10/31 08:13:06;;;;;;;1.50;1.17;;;14.40;1.00;;;;;;5139280;27;20475;-72
2022/10/31 08:15:37;;;;;;;2.27;1.10;;;14.40;1.00;;;;;;5136276;27;20533;-72
2022/10/31 08:18:04;;;;;;;1.90;1.10;;;14.30;1.00;;;;;;5138169;27;21058;-73
2022/10/31 08:20:31;;;;;;;2.90;1.20;;;14.20;1.00;;;;;;5136071;27;20965;-72
2022/10/31 08:23:01;;;;;;;4.77;1.20;;;14.00;1.00;;;;;;5137343;27;20452;-72
2022/10/31 08:25:30;;;;;;;3.10;1.23;;;13.80;1.00;;;;;;5133239;27;20484;-72
2022/10/31 08:27:58;;;;;;;3.30;1.00;;;13.80;1.00;;;;;;5137773;27;20847;-72
2022/10/31 08:30:30;;;;;;;3.03;1.40;;;13.90;1.00;;;;;;5140221;27;20438;-71
2022/10/31 08:33:02;;;;;;;3.50;1.20;;;14.10;1.00;;;;;;5122960;27;20513;-71
2022/10/31 08:35:30;;;;;;;2.93;1.40;;;14.10;1.00;;;;;;5130937;27;20486;-73
2022/10/31 08:37:59;;;;;;;3.07;1.40;;;14.10;1.00;;;;;;5139114;27;20475;-71
2022/10/31 08:40:29;;;;;;;2.10;1.30;;;14.10;1.00;;;;;;5141916;27;20475;-72
2022/10/31 08:43:06;;;;;;;3.30;1.70;;;14.00;1.00;;;;;;5119976;28;20555;-72
2022/10/31 08:45:37;;;;;;;4.90;1.30;;;14.00;1.00;;;;;;5127256;27;20813;-72
2022/10/31 08:48:10;;;;;;;3.37;1.20;;;13.90;1.00;;;;;;5138271;27;20506;-72
2022/10/31 08:50:48;;;;;;;5.63;1.40;;;13.80;1.00;;;;;;5139783;27;20454;-72
2022/10/31 08:53:18;;;;;;;3.73;1.20;;;13.80;1.00;;;;;;5139809;27;20462;-70
2022/10/31 08:55:49;;;;;;;4.40;1.33;;;13.90;1.00;;;;;;5139191;27;20452;-73
2022/10/31 08:58:25;;;;;;;2.97;1.50;;;14.10;1.00;;;;;;5140685;27;20445;-73
2022/10/31 09:00:56;;;;;;;3.30;1.57;;;14.20;1.00;;;;;;5123862;27;20471;-71
2022/10/31 09:03:31;;;;;;;3.57;1.30;;;14.20;1.00;;;;;;5129804;27;20478;-73
2022/10/31 09:06:08;;;;;;;2.70;1.30;;;14.30;1.00;;;;;;5140345;27;20455;-72
2022/10/31 09:08:37;;;;;;;1.80;1.30;;;14.40;1.00;;;;;;5139727;27;20467;-73
2022/10/31 09:11:14;;;;;;;3.37;1.30;;;14.40;1.00;;;;;;5131966;27;20467;-71
2022/10/31 09:14:14;;;;;;;4.17;1.53;;;14.50;1.00;;;;;;5130444;27;20505;-71
2022/10/31 09:16:42;;;;;;;3.60;1.40;;;14.80;1.00;;;;;;5131032;27;20702;-72
2022/10/31 09:19:15;;;;;;;3.00;1.40;;;15.00;1.00;;;;;;5132673;27;20457;-72
2022/10/31 09:24:47;;;;;;;5.10;2.17;;;15.10;1.00;;;;;;5127995;27;20488;-73
2022/10/31 09:27:15;;;;;;;2.30;1.47;;;15.10;1.00;;;;;;5139154;27;20508;-71
2022/10/31 09:29:45;;;;;;;3.17;1.40;;;15.00;1.00;;;;;;5139587;27;20475;-72
2022/10/31 09:32:21;;;;;;;5.53;1.30;;;15.20;1.00;;;;;;5140199;27;20462;-70
2022/10/31 09:34:48;;;;;;;3.37;1.80;;;15.30;1.00;;;;;;5142720;27;20873;-72
2022/10/31 09:37:21;;;;;;;3.00;1.60;;;15.50;1.00;;;;;;5139228;27;20454;-76
2022/10/31 09:39:50;;;;;;;5.60;1.80;;;15.70;1.00;;;;;;5137285;27;20445;-73
2022/10/31 09:42:57;;;;;;;3.30;1.20;;;15.90;99.90;;;;;;5139895;27;20194;-73
2022/10/31 09:45:32;;;;;;;4.20;1.30;;;16.00;1.00;;;;;;5131436;27;20452;-72
2022/10/31 09:48:16;;;;;;;3.90;2.20;;;16.00;1.00;;;;;;5138301;27;20451;-74
2022/10/31 09:50:48;;;;;;;3.93;1.50;;;15.90;1.00;;;;;;5139054;27;20812;-74
2022/10/31 09:53:25;;;;;;;2.03;1.67;;;15.80;6.50;;;;;;5136699;27;21028;-73
2022/10/31 09:55:55;;;;;;;3.07;1.30;;;15.90;99.90;;;;;;5119186;27;20896;-73
2022/10/31 09:58:27;;;;;;;2.13;1.10;;;16.00;99.90;;;;;;5137963;27;20455;-74
2022/10/31 10:00:58;;;;;;;7.00;1.50;;;16.10;96.60;;;;;;5130867;27;20447;-72
2022/10/31 10:03:32;;;;;;;2.50;1.20;;;16.20;1.00;;;;;;5135220;27;20456;-72
2022/10/31 10:06:08;;;;;;;3.93;1.60;;;16.10;1.00;;;;;;5137826;27;20478;-74
2022/10/31 10:08:36;;;;;;;3.73;1.40;;;16.10;1.00;;;;;;5136097;27;20475;-72
2022/10/31 10:11:18;;;;;;;2.33;1.30;;;15.90;1.00;;;;;;5134439;27;20478;-72
2022/10/31 10:14:07;;;;;;;6.27;1.50;;;15.90;99.90;;;;;;5136201;27;20750;-72
2022/10/31 10:16:47;;;;;;;2.43;1.20;;;16.10;99.90;;;;;;5128332;27;20490;-72
2022/10/31 10:19:42;;;;;;;3.63;1.60;;;16.30;1.00;;;;;;5133705;27;20506;-71
2022/10/31 10:22:14;;;;;;;3.73;1.30;;;16.50;99.90;;;;;;5134035;27;20471;-72
2022/10/31 10:24:56;;;;;;;3.73;1.87;;;16.60;99.90;;;;;;5133547;27;20495;-73
2022/10/31 10:27:35;;;;;;;3.40;1.57;;;16.60;99.90;;;;;;5129459;27;20851;-73
2022/10/31 10:30:06;;;;;;;4.50;1.47;;;16.60;99.90;;;;;;5130343;27;20483;-72
2022/10/31 10:32:41;;;;;;;2.40;1.37;;;16.60;99.90;;;;;;5129463;27;20463;-72
2022/10/31 10:35:26;;;;;;;2.70;2.10;;;16.50;99.90;;;;;;5127600;27;20456;-72
2022/10/31 10:37:59;;;;;;;5.83;4.27;;;16.50;1.00;;;;;;5137062;27;20493;-72
2022/10/31 10:40:28;;;;;;;4.30;1.70;;;16.70;1.00;;;;;;5130341;27;20834;-72
2022/10/31 10:43:22;;;;;;;1.87;1.40;;;16.90;86.10;;;;;;5135794;27;20506;-72
2022/10/31 10:48:52;;;;;;;5.63;1.90;;;16.80;1.00;;;;;;5126265;27;20513;-72
2022/10/31 10:51:24;;;;;;;2.23;1.20;;;16.60;99.90;;;;;;5134884;27;20467;-72
2022/10/31 10:54:32;;;;;;;5.37;1.87;;;16.80;1.00;;;;;;5134131;27;20524;-72
2022/10/31 10:57:09;;;;;;;4.10;1.63;;;17.00;1.00;;;;;;5117821;27;20517;-72
2022/10/31 10:59:38;;;;;;;2.83;1.53;;;17.00;1.00;;;;;;5133845;27;20446;-72
2022/10/31 11:02:18;;;;;;;4.10;1.87;;;17.00;1.00;;;;;;5127716;27;20456;-71
2022/10/31 11:04:48;;;;;;;2.63;1.40;;;17.10;1.00;;;;;;5135260;27;20815;-72
2022/10/31 11:07:15;;;;;;;2.23;1.20;;;17.10;1.00;;;;;;5135124;27;20440;-72
2022/10/31 11:09:42;;;;;;;2.63;1.40;;;17.20;99.90;;;;;;5134257;27;20476;-72
2022/10/31 11:12:11;;;;;;;1.93;1.40;;;17.50;1.00;;;;;;5131615;27;20444;-72
2022/10/31 11:14:47;;;;;;;2.30;1.57;;;17.70;99.90;;;;;;5134874;27;20494;-72
2022/10/31 11:17:23;;;;;;;5.57;1.70;;;17.90;8.30;;;;;;5133396;27;20448;-72
2022/10/31 11:20:01;;;;;;;3.53;1.20;;;17.90;99.90;;;;;;5143537;27;20788;-73
2022/10/31 11:22:28;;;;;;;3.40;1.47;;;17.80;1.00;;;;;;5151004;27;20462;-73
2022/10/31 11:24:55;;;;;;;2.83;1.40;;;17.60;1.00;;;;;;5136877;28;20444;-73
2022/10/31 11:27:24;;;;;;;4.40;1.10;;;17.60;1.00;;;;;;5136264;27;20505;-74
2022/10/31 11:29:53;;;;;;;2.20;1.30;;;17.70;1.00;;;;;;5134763;28;20471;-73
2022/10/31 11:32:22;;;;;;;3.30;1.30;;;17.80;1.00;;;;;;5135698;27;20443;-72
2022/10/31 11:34:53;;;;;;;1.83;1.30;;;18.00;1.00;;;;;;5135117;27;20454;-72
2022/10/31 11:37:26;;;;;;;2.50;1.77;;;18.30;99.90;;;;;;5136428;27;20478;-71
2022/10/31 11:39:55;;;;;;;3.87;1.20;;;18.30;99.90;;;;;;5133778;27;20495;-73
2022/10/31 11:42:24;;;;;;;3.30;1.73;;;18.20;99.90;;;;;;5136946;27;20458;-73
2022/10/31 11:44:54;;;;;;;4.50;1.60;;;18.30;99.90;;;;;;5136653;28;20443;-74
2022/10/31 11:47:27;;;;;;;2.53;1.30;;;18.30;27.80;;;;;;5130502;27;20472;-73
2022/10/31 11:49:55;;;;;;;2.40;1.07;;;18.20;99.90;;;;;;5133472;27;20945;-72
2022/10/31 11:52:30;;;;;;;3.40;1.00;;;18.40;99.90;;;;;;5133326;27;20801;-72
2022/10/31 11:55:01;;;;;;;3.17;1.70;;;18.60;97.30;;;;;;5132206;27;20470;-72
2022/10/31 11:57:34;;;;;;;3.17;1.20;;;18.70;1.00;;;;;;5135630;27;20754;-72
2022/10/31 12:00:05;;;;;;;2.07;1.40;;;18.70;1.00;;;;;;5135298;27;20775;-74
2022/10/31 12:02:33;;;;;;;6.83;1.80;;;18.90;1.00;;;;;;5134582;27;20455;-73
2022/10/31 12:05:07;;;;;;;4.13;1.87;;;19.00;1.00;;;;;;5138972;27;20509;-74
2022/10/31 12:07:35;;;;;;;2.20;1.50;;;19.00;1.00;;;;;;5139557;27;20483;-74
2022/10/31 12:10:02;;;;;;;1.77;1.30;;;18.90;1.00;;;;;;5140182;27;20483;-74
2022/10/31 12:12:49;;;;;;;4.40;1.27;;;18.80;1.00;;;;;;5138963;27;20512;-73
2022/10/31 12:15:33;;;;;;;1.90;1.17;;;18.90;1.00;;;;;;5138772;27;20456;-73
2022/10/31 12:18:25;;;;;;;3.43;1.47;;;19.10;1.00;;;;;;5138820;27;20444;-73
2022/10/31 12:21:05;;;;;;;2.57;1.53;;;19.30;1.00;;;;;;5139829;27;20484;-73
2022/10/31 12:23:43;;;;;;;2.07;1.30;;;19.40;1.00;;;;;;5138695;27;20457;-73
2022/10/31 12:26:19;;;;;;;1.47;1.00;;;19.50;1.00;;;;;;5140260;27;20767;-73
2022/10/31 12:29:01;;;;;;;6.87;2.70;;;19.50;1.00;;;;;;5119444;28;20505;-73
2022/10/31 12:31:48;;;;;;;3.50;1.50;;;19.50;1.00;;;;;;5119173;27;20786;-73
2022/10/31 12:34:58;;;;;;;2.40;1.60;;;19.20;1.00;;;;;;5120340;28;20505;-73
2022/10/31 12:37:44;;;;;;;3.37;1.40;;;19.10;1.00;;;;;;5108333;28;20448;-72
2022/10/31 12:40:28;;;;;;;2.47;1.23;;;19.20;1.00;;;;;;5118134;28;20488;-73
2022/10/31 12:43:06;;;;;;;1.90;1.20;;;19.20;1.00;;;;;;5117180;28;20442;-73
2022/10/31 12:45:52;;;;;;;4.90;1.93;;;19.20;1.00;;;;;;5118064;28;20452;-74
2022/10/31 12:48:41;;;;;;;7.10;1.43;;;19.10;1.00;;;;;;5119333;28;20444;-75
2022/10/31 12:51:15;;;;;;;3.03;1.60;;;19.10;1.00;;;;;;5118717;28;20481;-72
2022/10/31 12:53:58;;;;;;;1.97;1.40;;;19.00;1.00;;;;;;5133962;27;20436;-75
2022/10/31 12:56:40;;;;;;;2.80;1.57;;;19.00;1.00;;;;;;5139303;27;20992;-74
2022/10/31 12:59:14;;;;;;;5.43;1.80;;;18.80;99.90;;;;;;5139460;27;20469;-74
2022/10/31 13:01:47;;;;;;;2.23;1.60;;;18.60;99.90;;;;;;5138974;27;20507;-74
2022/10/31 13:04:20;;;;;;;2.37;1.50;;;18.50;1.00;;;;;;5137196;27;20439;-74
2022/10/31 13:06:50;;;;;;;2.70;1.57;;;18.60;1.00;;;;;;5137571;27;20474;-73
2022/10/31 13:09:22;;;;;;;3.57;1.50;;;18.60;1.00;;;;;;5117690;28;20500;-74
2022/10/31 13:11:54;;;;;;;5.90;1.30;;;18.50;1.00;;;;;;5118337;28;20514;-73
2022/10/31 13:14:27;;;;;;;5.70;1.53;;;18.60;1.00;;;;;;5128464;27;20736;-73
2022/10/31 13:16:56;;;;;;;2.90;1.83;;;18.70;1.00;;;;;;5138705;27;20476;-73
2022/10/31 13:19:31;;;;;;;6.90;2.03;;;18.70;1.00;;;;;;5137850;27;20494;-73
2022/10/31 13:22:04;;;;;;;3.73;1.87;;;18.80;99.90;;;;;;5136244;27;20474;-72
2022/10/31 13:24:37;;;;;;;5.73;2.03;;;18.70;99.90;;;;;;5119817;27;20499;-72